Time;durP1;ratioP1;P1;durP2;ratioP2;P2;SDS_P1;SDS_P2;PMS_P1;PMS_P2;Temp;Humidity;BMP_temperature;BMP_pressure;BME280_temperature;BME280_humidity;BME280_pressure;Samples;Min_cycle;Max_cycle;Signal;HPM_P1;HPM_P2
2023/06/18 00:02:04;;;;;;;12.30;8.00;;;;;;;;;;5039966;28;20045;-65
2023/06/18 00:04:31;;;;;;;12.52;8.23;;;;;;;;;;5045720;28;20058;-65
2023/06/18 00:06:59;;;;;;;11.65;8.10;;;;;;;;;;5042600;28;20057;-65
2023/06/18 00:09:26;;;;;;;11.50;8.10;;;;;;;;;;5040864;28;20397;-65
2023/06/18 00:11:53;;;;;;;13.10;8.98;;;;;;;;;;5044280;28;20045;-65
2023/06/18 00:14:21;;;;;;;15.30;9.52;;;;;;;;;;5049110;28;20063;-65
2023/06/18 00:16:48;;;;;;;13.18;8.63;;;;;;;;;;5046551;28;20048;-65
2023/06/18 00:19:16;;;;;;;11.30;8.07;;;;;;;;;;5044026;28;20049;-65
2023/06/18 00:21:44;;;;;;;13.82;8.80;;;;;;;;;;5023457;28;20045;-65
2023/06/18 00:24:11;;;;;;;12.77;8.88;;;;;;;;;;5043077;28;20049;-65
2023/06/18 00:26:38;;;;;;;17.40;10.18;;;;;;;;;;5051034;28;20040;-65
2023/06/18 00:29:06;;;;;;;15.52;10.07;;;;;;;;;;5036457;28;20403;-65
2023/06/18 00:31:33;;;;;;;17.38;10.63;;;;;;;;;;5045333;28;20123;-65
2023/06/18 00:34:05;;;;;;;14.63;10.38;;;;;;;;;;5061746;28;20059;-65
2023/06/18 00:36:33;;;;;;;15.90;10.02;;;;;;;;;;5038804;28;20469;-65
2023/06/18 00:39:03;;;;;;;14.23;9.98;;;;;;;;;;5052191;28;20063;-65
2023/06/18 00:41:31;;;;;;;15.88;10.20;;;;;;;;;;5047683;28;20203;-65
2023/06/18 00:43:58;;;;;;;16.63;10.63;;;;;;;;;;5044897;28;20092;-65
2023/06/18 00:46:26;;;;;;;16.27;10.02;;;;;;;;;;5046622;28;20045;-65
2023/06/18 00:48:54;;;;;;;17.00;10.43;;;;;;;;;;5046686;28;20048;-65
2023/06/18 00:51:22;;;;;;;16.48;10.35;;;;;;;;;;5049045;28;20420;-65
2023/06/18 00:53:51;;;;;;;18.33;10.98;;;;;;;;;;5042080;28;20049;-65
2023/06/18 00:56:22;;;;;;;17.13;10.40;;;;;;;;;;5038743;28;20080;-65
2023/06/18 00:58:51;;;;;;;18.27;11.40;;;;;;;;;;5024587;28;20057;-65
2023/06/18 01:01:19;;;;;;;18.83;11.98;;;;;;;;;;5046423;28;20045;-65
2023/06/18 01:03:47;;;;;;;17.92;11.70;;;;;;;;;;5055673;28;20051;-65
2023/06/18 01:06:17;;;;;;;20.40;11.63;;;;;;;;;;5040378;28;20068;-65
2023/06/18 01:08:48;;;;;;;19.20;11.68;;;;;;;;;;5040614;28;20488;-65
2023/06/18 01:11:19;;;;;;;17.08;11.32;;;;;;;;;;5027853;28;20084;-65
2023/06/18 01:13:46;;;;;;;19.85;12.20;;;;;;;;;;5046357;28;20053;-65
2023/06/18 01:16:14;;;;;;;19.38;11.95;;;;;;;;;;5053037;28;20048;-65
2023/06/18 01:18:45;;;;;;;17.55;11.57;;;;;;;;;;5053783;28;20053;-65
2023/06/18 01:21:13;;;;;;;18.23;11.75;;;;;;;;;;5044730;28;20507;-65
2023/06/18 01:23:49;;;;;;;20.17;12.80;;;;;;;;;;5051441;28;20037;-66
2023/06/18 01:26:20;;;;;;;20.30;12.57;;;;;;;;;;5041958;28;20411;-66
2023/06/18 01:28:49;;;;;;;18.65;11.90;;;;;;;;;;5042842;28;20056;-66
2023/06/18 01:31:20;;;;;;;19.45;12.13;;;;;;;;;;5045741;28;20045;-65
2023/06/18 01:33:51;;;;;;;20.17;12.05;;;;;;;;;;5048797;28;20048;-65
2023/06/18 01:36:24;;;;;;;17.52;11.90;;;;;;;;;;5042331;28;20042;-65
2023/06/18 01:38:54;;;;;;;19.88;12.48;;;;;;;;;;5056805;28;20049;-65
2023/06/18 01:41:27;;;;;;;18.10;11.85;;;;;;;;;;5043721;28;20057;-66
2023/06/18 01:43:57;;;;;;;19.08;11.52;;;;;;;;;;5016903;28;20444;-65
2023/06/18 01:46:27;;;;;;;18.70;11.15;;;;;;;;;;5043350;28;20045;-65
2023/06/18 01:48:56;;;;;;;16.40;11.13;;;;;;;;;;5021266;28;20064;-67
2023/06/18 01:51:25;;;;;;;18.13;11.27;;;;;;;;;;5035218;28;20045;-65
2023/06/18 01:53:53;;;;;;;18.92;11.43;;;;;;;;;;5040118;28;20072;-65
2023/06/18 01:56:23;;;;;;;20.25;10.77;;;;;;;;;;5030752;28;20107;-65
2023/06/18 01:58:51;;;;;;;20.25;11.38;;;;;;;;;;5042339;28;20076;-65
2023/06/18 02:01:20;;;;;;;16.80;11.07;;;;;;;;;;5059767;28;20585;-65
2023/06/18 02:03:47;;;;;;;16.38;11.10;;;;;;;;;;5034243;28;20115;-65
2023/06/18 02:06:15;;;;;;;14.52;9.80;;;;;;;;;;5051676;28;20052;-65
2023/06/18 02:08:42;;;;;;;16.85;11.07;;;;;;;;;;5048084;28;20045;-65
2023/06/18 02:11:10;;;;;;;17.58;10.65;;;;;;;;;;5031215;28;20062;-65
2023/06/18 02:13:38;;;;;;;15.32;9.88;;;;;;;;;;5042425;28;20057;-65
2023/06/18 02:16:05;;;;;;;20.95;11.55;;;;;;;;;;5035280;28;20053;-65
2023/06/18 02:18:33;;;;;;;14.73;9.85;;;;;;;;;;5030342;28;20393;-67
2023/06/18 02:21:00;;;;;;;16.83;10.77;;;;;;;;;;5041616;28;20052;-66
2023/06/18 02:23:28;;;;;;;16.58;10.70;;;;;;;;;;5038546;28;20128;-65
2023/06/18 02:25:56;;;;;;;16.40;9.98;;;;;;;;;;5046789;28;20060;-65
2023/06/18 02:28:24;;;;;;;15.02;9.02;;;;;;;;;;5016725;28;20059;-65
2023/06/18 02:30:52;;;;;;;13.63;8.23;;;;;;;;;;5044548;28;20063;-65
2023/06/18 02:33:20;;;;;;;13.18;8.90;;;;;;;;;;5036449;28;20041;-65
2023/06/18 02:35:47;;;;;;;11.98;8.45;;;;;;;;;;5024863;28;20841;-66
2023/06/18 02:38:14;;;;;;;15.63;9.30;;;;;;;;;;5033763;28;20057;-65
2023/06/18 02:40:42;;;;;;;13.40;8.95;;;;;;;;;;5043358;28;20038;-65
2023/06/18 02:43:09;;;;;;;13.73;8.82;;;;;;;;;;5037774;28;20053;-65
2023/06/18 02:45:36;;;;;;;13.25;8.65;;;;;;;;;;5034641;28;20500;-66
2023/06/18 02:48:05;;;;;;;12.55;8.27;;;;;;;;;;5021365;28;20053;-66
2023/06/18 02:50:32;;;;;;;14.00;8.77;;;;;;;;;;5035498;28;20068;-65
2023/06/18 02:52:59;;;;;;;10.60;7.70;;;;;;;;;;5026526;28;20429;-66
2023/06/18 02:55:26;;;;;;;13.18;8.40;;;;;;;;;;5039340;28;20056;-66
2023/06/18 02:57:54;;;;;;;12.23;8.10;;;;;;;;;;5012607;28;20404;-65
2023/06/18 03:00:21;;;;;;;11.00;7.63;;;;;;;;;;5043331;28;20049;-66
2023/06/18 03:02:48;;;;;;;10.88;7.72;;;;;;;;;;5035395;28;20059;-66
2023/06/18 03:05:17;;;;;;;10.95;7.68;;;;;;;;;;5049191;28;20040;-65
2023/06/18 03:07:44;;;;;;;11.82;8.80;;;;;;;;;;5045148;28;20048;-66
2023/06/18 03:10:11;;;;;;;13.02;8.70;;;;;;;;;;5029357;28;20060;-66
2023/06/18 03:12:39;;;;;;;13.82;9.10;;;;;;;;;;5042903;28;20045;-65
2023/06/18 03:15:07;;;;;;;13.00;8.75;;;;;;;;;;5025463;28;20488;-65
2023/06/18 03:17:34;;;;;;;12.25;8.43;;;;;;;;;;5043952;28;20045;-66
2023/06/18 03:20:01;;;;;;;13.55;9.07;;;;;;;;;;5037101;28;20051;-65
2023/06/18 03:22:30;;;;;;;14.73;9.40;;;;;;;;;;5044133;28;20485;-65
2023/06/18 03:25:00;;;;;;;14.80;9.25;;;;;;;;;;5049586;28;20040;-65
2023/06/18 03:27:27;;;;;;;15.15;9.20;;;;;;;;;;5040369;28;20124;-65
2023/06/18 03:29:55;;;;;;;13.95;9.07;;;;;;;;;;5033741;28;20052;-66
2023/06/18 03:32:23;;;;;;;15.13;9.07;;;;;;;;;;5041223;28;20048;-66
2023/06/18 03:34:50;;;;;;;14.45;9.10;;;;;;;;;;5046108;28;20095;-66
2023/06/18 03:37:17;;;;;;;13.35;8.48;;;;;;;;;;5042942;28;20049;-65
2023/06/18 03:39:46;;;;;;;13.10;9.07;;;;;;;;;;5045600;28;20057;-65
2023/06/18 03:42:14;;;;;;;12.32;8.05;;;;;;;;;;5036725;28;20056;-65
2023/06/18 03:44:41;;;;;;;13.00;8.93;;;;;;;;;;5038820;28;20079;-66
2023/06/18 03:47:08;;;;;;;15.82;9.25;;;;;;;;;;5043726;28;20053;-66
2023/06/18 03:49:36;;;;;;;15.32;9.70;;;;;;;;;;5048360;28;20125;-66
2023/06/18 03:52:03;;;;;;;12.48;8.65;;;;;;;;;;5036706;28;20061;-65
2023/06/18 03:54:31;;;;;;;12.98;9.07;;;;;;;;;;5052103;28;20052;-65
2023/06/18 03:57:00;;;;;;;15.52;9.15;;;;;;;;;;5044282;28;20146;-65
2023/06/18 03:59:27;;;;;;;12.27;8.77;;;;;;;;;;5038686;28;20148;-65
2023/06/18 04:01:55;;;;;;;12.75;8.00;;;;;;;;;;5038856;28;20063;-65
2023/06/18 04:04:22;;;;;;;12.35;8.57;;;;;;;;;;5042319;28;20132;-65
2023/06/18 04:06:49;;;;;;;11.77;8.07;;;;;;;;;;5039853;28;20053;-65
2023/06/18 04:09:17;;;;;;;10.52;7.15;;;;;;;;;;5049056;28;20499;-65
2023/06/18 04:11:45;;;;;;;10.60;8.02;;;;;;;;;;5043667;28;20099;-65
2023/06/18 04:14:14;;;;;;;11.90;8.40;;;;;;;;;;5036598;28;20049;-65
2023/06/18 04:16:41;;;;;;;15.32;8.25;;;;;;;;;;5038107;28;20111;-65
2023/06/18 04:19:08;;;;;;;13.30;8.68;;;;;;;;;;5038495;28;20547;-66
2023/06/18 04:21:36;;;;;;;15.73;8.98;;;;;;;;;;5033584;28;20064;-66
2023/06/18 04:24:04;;;;;;;15.77;9.75;;;;;;;;;;5048723;28;20118;-66
2023/06/18 04:26:32;;;;;;;14.70;9.45;;;;;;;;;;5038934;28;20080;-65
2023/06/18 04:28:59;;;;;;;14.77;10.00;;;;;;;;;;5036016;28;20535;-65
2023/06/18 04:31:27;;;;;;;14.73;10.02;;;;;;;;;;5016739;28;20063;-66
2023/06/18 04:33:55;;;;;;;15.05;10.48;;;;;;;;;;5032498;28;20056;-65
2023/06/18 04:36:22;;;;;;;19.02;11.27;;;;;;;;;;5048005;28;20055;-65
2023/06/18 04:38:49;;;;;;;15.68;9.98;;;;;;;;;;5042712;28;20531;-65
2023/06/18 04:41:16;;;;;;;17.08;10.82;;;;;;;;;;5035780;28;20504;-65
2023/06/18 04:43:44;;;;;;;15.48;10.43;;;;;;;;;;5041693;28;20045;-65
2023/06/18 04:46:11;;;;;;;16.45;10.73;;;;;;;;;;5042015;28;20077;-65
2023/06/18 04:48:40;;;;;;;15.23;10.20;;;;;;;;;;5036748;28;20091;-66
2023/06/18 04:51:08;;;;;;;15.30;9.70;;;;;;;;;;5036472;28;20042;-66
2023/06/18 04:53:35;;;;;;;13.38;9.85;;;;;;;;;;5041977;28;20049;-66
2023/06/18 04:56:03;;;;;;;14.45;9.68;;;;;;;;;;5028637;28;20072;-66
2023/06/18 04:58:34;;;;;;;13.65;9.25;;;;;;;;;;5042935;28;20366;-65
2023/06/18 05:01:01;;;;;;;14.13;9.82;;;;;;;;;;5035234;28;20050;-65
2023/06/18 05:03:29;;;;;;;15.23;10.18;;;;;;;;;;5036168;28;20103;-66
2023/06/18 05:05:57;;;;;;;14.57;9.48;;;;;;;;;;5052754;28;20058;-65
2023/06/18 05:08:25;;;;;;;14.77;10.02;;;;;;;;;;5048573;28;20056;-65
2023/06/18 05:10:52;;;;;;;14.05;9.90;;;;;;;;;;5040836;28;20394;-65
2023/06/18 05:13:19;;;;;;;14.25;9.93;;;;;;;;;;5044199;28;20049;-67
2023/06/18 05:15:47;;;;;;;16.23;10.70;;;;;;;;;;5045018;28;20045;-66
2023/06/18 05:18:14;;;;;;;15.43;10.27;;;;;;;;;;5051229;28;20049;-67
2023/06/18 05:20:41;;;;;;;16.90;10.70;;;;;;;;;;5048002;28;20514;-67
2023/06/18 05:23:10;;;;;;;16.65;9.85;;;;;;;;;;5017658;28;20053;-67
2023/06/18 05:25:37;;;;;;;17.23;10.75;;;;;;;;;;5036800;28;20350;-68
2023/06/18 05:28:04;;;;;;;19.17;9.82;;;;;;;;;;5039363;28;20048;-66
2023/06/18 05:30:32;;;;;;;15.23;10.65;;;;;;;;;;5045004;28;20059;-66
2023/06/18 05:32:59;;;;;;;16.85;10.40;;;;;;;;;;5023766;28;20064;-66
2023/06/18 05:35:26;;;;;;;18.55;11.13;;;;;;;;;;5043592;28;20480;-65
2023/06/18 05:37:54;;;;;;;17.23;11.23;;;;;;;;;;5045486;28;20069;-66
2023/06/18 05:40:22;;;;;;;16.30;11.48;;;;;;;;;;5040917;28;20595;-67
2023/06/18 05:42:49;;;;;;;21.48;11.18;;;;;;;;;;5036503;28;20452;-66
2023/06/18 05:45:17;;;;;;;17.30;10.57;;;;;;;;;;5034985;28;20056;-67
2023/06/18 05:47:44;;;;;;;18.40;11.50;;;;;;;;;;5035318;28;20050;-67
2023/06/18 05:50:11;;;;;;;18.60;11.30;;;;;;;;;;5045043;28;20056;-68
2023/06/18 05:52:39;;;;;;;18.55;11.63;;;;;;;;;;5042201;28;20049;-67
2023/06/18 05:55:07;;;;;;;19.02;11.30;;;;;;;;;;5038943;28;20071;-68
2023/06/18 05:57:36;;;;;;;16.25;11.23;;;;;;;;;;5027298;28;20492;-67
2023/06/18 06:00:04;;;;;;;17.85;11.02;;;;;;;;;;5018786;28;20045;-67
2023/06/18 06:02:31;;;;;;;16.10;10.80;;;;;;;;;;5027098;28;20057;-66
2023/06/18 06:04:58;;;;;;;16.95;11.27;;;;;;;;;;5044348;28;20045;-67
2023/06/18 06:07:25;;;;;;;15.48;10.65;;;;;;;;;;5043219;28;20045;-66
2023/06/18 06:09:53;;;;;;;16.80;10.73;;;;;;;;;;5042971;28;20482;-67
2023/06/18 06:12:20;;;;;;;19.25;11.48;;;;;;;;;;5046104;28;20052;-67
2023/06/18 06:14:49;;;;;;;17.92;11.40;;;;;;;;;;5049972;28;20040;-66
2023/06/18 06:17:17;;;;;;;19.83;11.77;;;;;;;;;;5048937;28;20056;-67
2023/06/18 06:19:44;;;;;;;17.33;11.23;;;;;;;;;;5039120;28;20049;-66
2023/06/18 06:22:11;;;;;;;19.60;12.02;;;;;;;;;;5041928;28;20057;-66
2023/06/18 06:24:39;;;;;;;19.20;10.95;;;;;;;;;;5043269;28;20040;-66
2023/06/18 06:27:06;;;;;;;20.20;11.93;;;;;;;;;;5035795;28;20060;-67
2023/06/18 06:29:33;;;;;;;17.10;11.50;;;;;;;;;;5041923;28;20052;-67
2023/06/18 06:32:02;;;;;;;18.80;11.75;;;;;;;;;;5044725;28;20060;-67
2023/06/18 06:34:30;;;;;;;17.70;11.73;;;;;;;;;;5040953;28;20057;-66
2023/06/18 06:36:57;;;;;;;18.77;11.38;;;;;;;;;;5039938;28;20080;-66
2023/06/18 06:39:24;;;;;;;18.35;10.65;;;;;;;;;;5045624;28;20056;-67
2023/06/18 06:41:52;;;;;;;17.38;10.60;;;;;;;;;;5045443;28;20128;-66
2023/06/18 06:44:19;;;;;;;16.20;10.70;;;;;;;;;;5031499;28;20143;-66
2023/06/18 06:46:46;;;;;;;17.25;10.90;;;;;;;;;;5042215;28;20049;-67
2023/06/18 06:49:15;;;;;;;16.23;10.35;;;;;;;;;;5040594;28;20132;-67
2023/06/18 06:51:42;;;;;;;17.75;10.93;;;;;;;;;;5035638;28;20045;-66
2023/06/18 06:54:10;;;;;;;17.40;11.00;;;;;;;;;;5048947;28;20056;-66
2023/06/18 06:56:38;;;;;;;19.67;11.32;;;;;;;;;;5039829;28;20503;-66
2023/06/18 06:59:05;;;;;;;18.13;11.30;;;;;;;;;;5027005;28;20052;-66
2023/06/18 07:01:32;;;;;;;16.00;9.95;;;;;;;;;;5034647;28;20049;-67
2023/06/18 07:03:59;;;;;;;17.40;10.93;;;;;;;;;;5058843;28;20036;-66
2023/06/18 07:06:28;;;;;;;16.70;10.85;;;;;;;;;;5047489;28;20045;-67
2023/06/18 07:08:55;;;;;;;19.67;10.68;;;;;;;;;;5058374;28;20048;-67
2023/06/18 07:11:23;;;;;;;16.83;11.35;;;;;;;;;;5032863;28;20057;-67
2023/06/18 07:13:50;;;;;;;17.45;10.98;;;;;;;;;;5048933;28;20408;-67
2023/06/18 07:16:17;;;;;;;16.45;10.57;;;;;;;;;;5021024;28;20049;-66
2023/06/18 07:18:45;;;;;;;17.48;9.90;;;;;;;;;;5039557;28;20412;-67
2023/06/18 07:21:12;;;;;;;20.90;11.90;;;;;;;;;;5045368;28;20060;-66
2023/06/18 07:23:40;;;;;;;16.52;11.07;;;;;;;;;;5044681;28;20523;-66
2023/06/18 07:26:08;;;;;;;16.05;10.80;;;;;;;;;;5035716;28;20041;-68
2023/06/18 07:28:35;;;;;;;18.70;11.68;;;;;;;;;;5046339;28;20053;-68
2023/06/18 07:31:02;;;;;;;15.90;11.05;;;;;;;;;;5039886;28;20053;-68
2023/06/18 07:33:30;;;;;;;17.25;10.68;;;;;;;;;;5025870;28;20056;-68
2023/06/18 07:35:57;;;;;;;19.67;11.35;;;;;;;;;;5045956;28;20439;-67
2023/06/18 07:38:24;;;;;;;17.33;11.18;;;;;;;;;;5040736;28;20055;-68
2023/06/18 07:40:53;;;;;;;16.00;10.13;;;;;;;;;;5035635;28;20137;-67
2023/06/18 07:43:20;;;;;;;13.75;9.27;;;;;;;;;;5047830;28;20046;-68
2023/06/18 07:45:48;;;;;;;15.13;9.88;;;;;;;;;;5037804;28;20373;-68
2023/06/18 07:48:15;;;;;;;15.18;9.82;;;;;;;;;;5039657;28;20513;-68
2023/06/18 07:50:42;;;;;;;16.08;9.75;;;;;;;;;;5047222;28;20044;-67
2023/06/18 07:53:09;;;;;;;15.93;9.93;;;;;;;;;;5044340;28;20053;-67
2023/06/18 07:55:37;;;;;;;14.98;9.93;;;;;;;;;;5053733;28;20550;-68
2023/06/18 07:58:05;;;;;;;13.75;9.50;;;;;;;;;;5049716;28;20053;-68
2023/06/18 08:00:32;;;;;;;14.38;10.13;;;;;;;;;;5031803;28;20051;-69
2023/06/18 08:03:00;;;;;;;12.18;9.02;;;;;;;;;;5045034;28;20056;-68
2023/06/18 08:05:27;;;;;;;14.50;10.20;;;;;;;;;;5049227;28;20441;-68
2023/06/18 08:07:54;;;;;;;17.25;9.90;;;;;;;;;;5037201;28;20061;-68
2023/06/18 08:10:21;;;;;;;21.67;10.25;;;;;;;;;;5054291;28;20053;-68
2023/06/18 08:12:49;;;;;;;15.77;10.13;;;;;;;;;;5058919;28;20055;-68
2023/06/18 08:15:18;;;;;;;12.77;8.90;;;;;;;;;;5051664;28;20068;-68
2023/06/18 08:17:45;;;;;;;15.32;8.77;;;;;;;;;;5035526;28;20045;-68
2023/06/18 08:20:12;;;;;;;15.02;9.65;;;;;;;;;;5041117;28;20341;-68
2023/06/18 08:22:40;;;;;;;16.25;9.65;;;;;;;;;;5057754;28;20051;-68
2023/06/18 08:25:07;;;;;;;14.88;9.07;;;;;;;;;;5053988;28;20045;-68
2023/06/18 08:27:34;;;;;;;13.70;9.15;;;;;;;;;;5040897;28;20049;-68
2023/06/18 08:30:02;;;;;;;17.13;9.23;;;;;;;;;;5037389;28;20488;-68
2023/06/18 08:32:30;;;;;;;16.27;10.02;;;;;;;;;;5064266;28;20045;-68
2023/06/18 08:34:58;;;;;;;13.80;8.68;;;;;;;;;;5066069;28;20412;-68
2023/06/18 08:37:25;;;;;;;14.07;9.52;;;;;;;;;;5047714;28;20048;-67
2023/06/18 08:39:52;;;;;;;16.38;10.40;;;;;;;;;;5066798;28;20468;-68
2023/06/18 08:42:22;;;;;;;14.57;9.55;;;;;;;;;;5033775;28;20049;-68
2023/06/18 08:44:50;;;;;;;15.50;9.65;;;;;;;;;;5051216;28;20052;-68
2023/06/18 08:47:18;;;;;;;16.98;10.43;;;;;;;;;;5064364;28;20051;-67
2023/06/18 08:49:49;;;;;;;14.25;9.82;;;;;;;;;;5054441;28;20048;-68
2023/06/18 08:52:19;;;;;;;13.40;8.90;;;;;;;;;;5064656;28;20052;-68
2023/06/18 08:54:48;;;;;;;14.10;9.45;;;;;;;;;;5050338;28;20049;-68
2023/06/18 08:57:17;;;;;;;14.23;8.57;;;;;;;;;;5028275;28;20479;-68
2023/06/18 08:59:44;;;;;;;14.80;8.30;;;;;;;;;;5048701;28;20480;-68
2023/06/18 09:02:12;;;;;;;12.20;8.45;;;;;;;;;;5026326;28;20053;-68
2023/06/18 09:04:40;;;;;;;11.95;8.00;;;;;;;;;;5051052;28;20056;-67
2023/06/18 09:07:09;;;;;;;12.32;8.57;;;;;;;;;;5057734;28;20044;-68
2023/06/18 09:09:37;;;;;;;11.95;8.23;;;;;;;;;;5060558;28;20049;-68
2023/06/18 09:12:05;;;;;;;10.32;6.97;;;;;;;;;;5063269;28;20156;-68
2023/06/18 09:14:32;;;;;;;10.55;6.80;;;;;;;;;;5057253;28;20045;-68
2023/06/18 09:17:00;;;;;;;10.50;7.30;;;;;;;;;;5053189;28;20057;-68
2023/06/18 09:19:27;;;;;;;10.70;6.68;;;;;;;;;;5051373;28;20404;-68
2023/06/18 09:21:55;;;;;;;11.85;6.85;;;;;;;;;;5054379;28;20508;-68
2023/06/18 09:24:24;;;;;;;10.75;6.60;;;;;;;;;;5058799;28;20048;-68
2023/06/18 09:26:52;;;;;;;8.27;5.70;;;;;;;;;;5042349;28;20054;-67
2023/06/18 09:29:20;;;;;;;10.13;6.47;;;;;;;;;;5037196;28;20049;-69
2023/06/18 09:31:47;;;;;;;9.80;6.28;;;;;;;;;;5052776;28;20125;-68
2023/06/18 09:34:15;;;;;;;9.88;6.18;;;;;;;;;;5045825;28;20085;-68
2023/06/18 09:36:43;;;;;;;8.57;5.55;;;;;;;;;;5036345;28;20071;-68
2023/06/18 09:39:20;;;;;;;4.68;4.18;;;;;;;;;;5046382;28;20530;-68
2023/06/18 09:41:49;;;;;;;6.20;4.55;;;;;;;;;;5050613;28;20525;-68
2023/06/18 09:44:17;;;;;;;6.10;4.00;;;;;;;;;;5042764;28;20107;-68
2023/06/18 09:46:44;;;;;;;5.25;3.85;;;;;;;;;;5050789;28;20472;-68
2023/06/18 09:49:13;;;;;;;5.78;4.13;;;;;;;;;;5056502;28;20044;-68
2023/06/18 09:51:40;;;;;;;4.93;3.50;;;;;;;;;;5055889;28;20057;-68
2023/06/18 09:54:08;;;;;;;5.10;3.75;;;;;;;;;;5037911;28;20136;-68
2023/06/18 09:56:36;;;;;;;5.22;3.95;;;;;;;;;;5054143;28;20068;-68
2023/06/18 09:59:04;;;;;;;9.15;3.92;;;;;;;;;;5046418;28;20053;-68
2023/06/18 10:01:46;;;;;;;6.47;4.20;;;;;;;;;;5023334;28;20060;-68
2023/06/18 10:04:13;;;;;;;6.57;3.97;;;;;;;;;;5047014;28;20131;-68
2023/06/18 10:06:41;;;;;;;6.75;4.10;;;;;;;;;;5054174;28;20048;-69
2023/06/18 10:09:08;;;;;;;4.57;3.92;;;;;;;;;;5055567;28;20479;-68
2023/06/18 10:11:36;;;;;;;6.30;4.25;;;;;;;;;;5056733;28;20051;-68
2023/06/18 10:14:10;;;;;;;7.22;4.15;;;;;;;;;;5045043;28;20126;-68
2023/06/18 10:16:39;;;;;;;5.03;3.67;;;;;;;;;;5043197;28;20048;-68
2023/06/18 10:19:11;;;;;;;5.72;3.90;;;;;;;;;;5024697;28;20051;-68
2023/06/18 10:21:39;;;;;;;5.65;3.92;;;;;;;;;;5039997;28;20384;-68
2023/06/18 10:24:10;;;;;;;10.23;5.32;;;;;;;;;;5053917;28;20545;-68
2023/06/18 10:26:38;;;;;;;6.80;4.60;;;;;;;;;;5033516;28;20545;-68
2023/06/18 10:29:09;;;;;;;9.40;4.63;;;;;;;;;;5039224;28;20056;-68
2023/06/18 10:31:37;;;;;;;6.82;4.63;;;;;;;;;;5060738;28;20052;-68
2023/06/18 10:34:04;;;;;;;6.97;4.88;;;;;;;;;;5056147;28;20045;-68
2023/06/18 10:36:32;;;;;;;9.68;4.60;;;;;;;;;;5047573;28;20044;-68
2023/06/18 10:38:59;;;;;;;7.72;4.80;;;;;;;;;;5055846;28;20063;-68
2023/06/18 10:41:27;;;;;;;5.38;4.25;;;;;;;;;;5061899;28;20102;-68
2023/06/18 10:43:55;;;;;;;6.03;4.63;;;;;;;;;;5052655;28;20512;-68
2023/06/18 10:46:24;;;;;;;7.03;4.50;;;;;;;;;;5057107;28;20068;-68
2023/06/18 10:49:10;;;;;;;8.23;5.13;;;;;;;;;;5050418;28;20071;-68
2023/06/18 10:51:37;;;;;;;6.47;4.85;;;;;;;;;;5034477;28;20048;-69
2023/06/18 10:54:21;;;;;;;5.70;4.40;;;;;;;;;;5036148;28;20415;-68
2023/06/18 10:56:51;;;;;;;5.55;4.50;;;;;;;;;;5041668;28;20762;-68
2023/06/18 10:59:34;;;;;;;8.38;5.18;;;;;;;;;;5042931;28;20164;-69
2023/06/18 11:02:03;;;;;;;6.38;4.53;;;;;;;;;;5041990;28;20049;-68
2023/06/18 11:04:31;;;;;;;8.07;4.55;;;;;;;;;;5040413;28;20045;-68
2023/06/18 11:07:15;;;;;;;4.82;3.78;;;;;;;;;;5041599;28;20084;-68
2023/06/18 11:09:49;;;;;;;7.65;5.03;;;;;;;;;;5057034;28;20045;-69
2023/06/18 11:12:20;;;;;;;6.90;4.47;;;;;;;;;;5040410;28;20053;-68
2023/06/18 11:15:02;;;;;;;6.93;4.25;;;;;;;;;;5023833;28;20506;-68
2023/06/18 11:17:31;;;;;;;4.93;3.93;;;;;;;;;;5034293;28;20045;-68
2023/06/18 11:19:58;;;;;;;5.88;4.68;;;;;;;;;;5042211;28;20779;-68
2023/06/18 11:22:26;;;;;;;5.43;4.20;;;;;;;;;;5049114;28;20055;-68
2023/06/18 11:24:53;;;;;;;6.13;4.57;;;;;;;;;;5050344;28;20076;-69
2023/06/18 11:27:21;;;;;;;5.95;4.40;;;;;;;;;;5046362;28;20052;-68
2023/06/18 11:29:48;;;;;;;5.07;4.38;;;;;;;;;;5053179;28;20049;-68
2023/06/18 11:32:15;;;;;;;5.97;4.15;;;;;;;;;;5044043;28;20048;-68
2023/06/18 11:34:44;;;;;;;5.70;4.53;;;;;;;;;;5029177;28;20052;-68
2023/06/18 11:37:12;;;;;;;5.63;4.18;;;;;;;;;;5057465;28;20045;-68
2023/06/18 11:39:41;;;;;;;5.75;4.60;;;;;;;;;;5043550;28;20132;-68
2023/06/18 11:42:19;;;;;;;7.15;4.43;;;;;;;;;;5037119;28;20100;-69
2023/06/18 11:44:47;;;;;;;5.78;4.50;;;;;;;;;;5064637;28;20052;-68
2023/06/18 11:47:15;;;;;;;5.65;4.28;;;;;;;;;;5050075;28;20758;-68
2023/06/18 11:49:43;;;;;;;7.43;4.20;;;;;;;;;;5045607;28;20052;-69
2023/06/18 11:52:12;;;;;;;6.05;4.38;;;;;;;;;;5055987;28;20085;-68
2023/06/18 11:54:40;;;;;;;5.57;4.47;;;;;;;;;;5043422;28;20057;-69
2023/06/18 11:57:07;;;;;;;5.07;4.40;;;;;;;;;;5030642;28;20057;-69
2023/06/18 11:59:36;;;;;;;5.25;4.15;;;;;;;;;;5053221;28;20048;-68
2023/06/18 12:02:12;;;;;;;5.05;4.03;;;;;;;;;;5057083;28;20053;-68
2023/06/18 12:04:40;;;;;;;7.28;4.60;;;;;;;;;;5024016;28;20053;-69
2023/06/18 12:07:07;;;;;;;5.30;4.20;;;;;;;;;;5048951;28;20056;-68
2023/06/18 12:09:37;;;;;;;6.35;4.45;;;;;;;;;;5052029;28;20137;-69
2023/06/18 12:12:13;;;;;;;6.93;4.35;;;;;;;;;;5047199;28;20612;-68
2023/06/18 12:14:42;;;;;;;7.07;4.40;;;;;;;;;;5060440;28;20061;-69
2023/06/18 12:17:13;;;;;;;4.55;4.03;;;;;;;;;;5041481;28;20084;-70
2023/06/18 12:19:43;;;;;;;7.72;4.18;;;;;;;;;;5050014;28;20049;-70
2023/06/18 12:22:10;;;;;;;5.25;4.40;;;;;;;;;;5047553;28;20064;-70
2023/06/18 12:24:39;;;;;;;5.20;4.10;;;;;;;;;;5042766;28;20049;-70
2023/06/18 12:27:06;;;;;;;5.50;4.47;;;;;;;;;;5057390;28;20076;-70
2023/06/18 12:29:34;;;;;;;4.93;4.13;;;;;;;;;;5053461;28;20044;-70
2023/06/18 12:32:02;;;;;;;6.13;4.65;;;;;;;;;;5059249;28;20075;-71
2023/06/18 12:34:31;;;;;;;5.07;4.10;;;;;;;;;;5041144;28;20040;-70
2023/06/18 12:36:58;;;;;;;4.35;3.83;;;;;;;;;;5044547;28;20136;-71
2023/06/18 12:39:25;;;;;;;5.00;4.25;;;;;;;;;;5038773;28;20392;-70
2023/06/18 12:41:55;;;;;;;5.70;4.03;;;;;;;;;;5048020;28;20057;-71
2023/06/18 12:44:22;;;;;;;5.30;3.85;;;;;;;;;;5051909;28;20140;-70
2023/06/18 12:46:50;;;;;;;6.32;3.85;;;;;;;;;;5049661;28;20079;-71
2023/06/18 12:49:18;;;;;;;5.32;3.80;;;;;;;;;;5024974;28;20087;-70
2023/06/18 12:51:46;;;;;;;5.72;4.13;;;;;;;;;;5042448;28;20053;-71
2023/06/18 12:54:14;;;;;;;4.50;3.95;;;;;;;;;;5051393;28;20724;-70
2023/06/18 12:56:47;;;;;;;6.47;3.97;;;;;;;;;;5049662;28;20561;-71
2023/06/18 12:59:17;;;;;;;4.55;3.95;;;;;;;;;;5037889;28;20296;-71
2023/06/18 13:01:45;;;;;;;7.22;3.65;;;;;;;;;;5037201;28;20060;-72
2023/06/18 13:04:13;;;;;;;5.22;3.25;;;;;;;;;;5039819;28;21316;-72
2023/06/18 13:06:40;;;;;;;6.50;3.85;;;;;;;;;;5034523;28;20404;-72
2023/06/18 13:09:08;;;;;;;3.38;3.00;;;;;;;;;;5041275;28;20556;-72
2023/06/18 13:11:36;;;;;;;4.75;3.30;;;;;;;;;;5046096;28;20511;-71
2023/06/18 13:14:03;;;;;;;5.90;3.53;;;;;;;;;;5041707;28;20042;-71
2023/06/18 13:16:33;;;;;;;4.40;2.85;;;;;;;;;;5041812;28;20059;-71
2023/06/18 13:19:04;;;;;;;4.30;2.90;;;;;;;;;;5045374;28;20076;-71
2023/06/18 13:21:33;;;;;;;4.68;3.10;;;;;;;;;;5042748;28;20056;-71
2023/06/18 13:24:00;;;;;;;3.95;3.00;;;;;;;;;;5039460;28;20044;-71
2023/06/18 13:26:29;;;;;;;5.47;3.30;;;;;;;;;;5036485;28;20041;-71
2023/06/18 13:28:56;;;;;;;3.65;3.17;;;;;;;;;;5045241;28;20380;-71
2023/06/18 13:31:23;;;;;;;3.40;3.10;;;;;;;;;;5039920;28;20131;-70
2023/06/18 13:33:52;;;;;;;3.38;2.95;;;;;;;;;;5036126;28;20512;-71
2023/06/18 13:36:19;;;;;;;4.45;2.88;;;;;;;;;;5013005;28;20057;-71
2023/06/18 13:38:46;;;;;;;4.32;3.35;;;;;;;;;;5048420;28;20045;-70
2023/06/18 13:41:14;;;;;;;4.35;3.15;;;;;;;;;;5036227;28;20053;-71
2023/06/18 13:43:41;;;;;;;3.30;3.00;;;;;;;;;;5021344;28;20080;-70
2023/06/18 13:46:08;;;;;;;3.97;3.30;;;;;;;;;;5043132;28;20052;-71
2023/06/18 13:48:35;;;;;;;3.95;3.55;;;;;;;;;;5042418;28;20689;-71
2023/06/18 13:51:04;;;;;;;4.50;3.50;;;;;;;;;;5040549;28;20472;-71
2023/06/18 13:53:31;;;;;;;5.25;3.65;;;;;;;;;;5037666;28;20045;-71
2023/06/18 13:55:59;;;;;;;4.50;3.53;;;;;;;;;;5028654;28;20056;-71
2023/06/18 13:58:26;;;;;;;4.22;3.80;;;;;;;;;;5039562;28;20304;-71
2023/06/18 14:00:53;;;;;;;4.47;3.75;;;;;;;;;;5039439;28;20084;-71
2023/06/18 14:03:20;;;;;;;5.55;3.70;;;;;;;;;;5038891;28;20048;-71
2023/06/18 14:05:47;;;;;;;4.38;3.58;;;;;;;;;;5037488;28;20091;-71
2023/06/18 14:08:16;;;;;;;4.20;3.58;;;;;;;;;;5016101;28;20052;-70
2023/06/18 14:10:43;;;;;;;4.57;3.95;;;;;;;;;;5039059;28;20049;-71
2023/06/18 14:13:11;;;;;;;4.53;3.90;;;;;;;;;;5047949;28;20511;-72
2023/06/18 14:15:38;;;;;;;5.45;3.90;;;;;;;;;;5039433;28;20084;-70
2023/06/18 14:18:07;;;;;;;4.75;3.63;;;;;;;;;;5049120;28;20049;-70
2023/06/18 14:20:34;;;;;;;4.72;3.80;;;;;;;;;;5041965;28;20045;-70
2023/06/18 14:23:02;;;;;;;5.78;3.95;;;;;;;;;;5042775;28;20515;-71
2023/06/18 14:25:30;;;;;;;4.38;3.83;;;;;;;;;;5045785;28;20053;-70
2023/06/18 14:27:58;;;;;;;4.45;3.78;;;;;;;;;;5033343;28;20071;-71
2023/06/18 14:30:25;;;;;;;5.00;3.75;;;;;;;;;;5024332;28;20048;-71
2023/06/18 14:32:52;;;;;;;4.70;4.10;;;;;;;;;;5051494;28;20045;-70
2023/06/18 14:35:20;;;;;;;5.88;4.10;;;;;;;;;;5053923;28;20135;-70
2023/06/18 14:37:48;;;;;;;4.78;3.90;;;;;;;;;;5040503;28;20119;-70